createdAt,value
2023-01-13T00:04:11.251Z,-6.51
2023-01-13T00:09:13.216Z,-6.51
2023-01-13T00:14:15.079Z,-6.57
2023-01-13T00:19:16.897Z,-6.55
2023-01-13T00:24:18.850Z,-6.50
2023-01-13T00:29:20.818Z,-6.45
2023-01-13T00:34:22.826Z,-6.46
2023-01-13T00:39:24.729Z,-6.52
2023-01-13T00:44:26.604Z,-6.35
2023-01-13T00:49:28.435Z,-6.44
2023-01-13T00:54:30.309Z,-6.38
2023-01-13T00:59:32.145Z,-6.46
2023-01-13T01:04:34.090Z,-6.44
2023-01-13T01:09:35.969Z,-6.33
2023-01-13T01:14:37.808Z,-6.39
2023-01-13T01:19:39.791Z,-6.39
2023-01-13T01:24:41.640Z,-6.32
2023-01-13T01:29:43.507Z,-6.37
2023-01-13T01:34:45.358Z,-6.43
2023-01-13T01:39:47.295Z,-6.39
2023-01-13T01:45:13.819Z,-6.35
2023-01-13T01:50:15.866Z,-6.41
2023-01-13T01:55:20.003Z,-6.44
2023-01-13T02:00:22.014Z,-6.42
2023-01-13T02:05:24.043Z,-6.40
2023-01-13T02:10:27.009Z,-6.33
2023-01-13T02:15:40.676Z,-6.38
2023-01-13T02:21:00.938Z,-6.38
2023-01-13T02:26:20.621Z,-6.26
2023-01-13T02:31:22.775Z,-6.34
2023-01-13T02:36:39.595Z,-6.42
2023-01-13T02:41:49.715Z,-6.42
2023-01-13T02:47:16.287Z,-6.33
2023-01-13T02:52:28.529Z,-6.32
2023-01-13T02:57:30.731Z,-6.15
2023-01-13T03:02:32.732Z,-6.14
2023-01-13T03:08:01.267Z,-6.17
2023-01-13T03:13:12.849Z,-6.21
2023-01-13T03:18:29.100Z,-6.16
2023-01-13T03:23:50.550Z,-6.19
2023-01-13T03:28:54.822Z,-6.20
2023-01-13T03:34:02.563Z,-6.28
2023-01-13T03:39:08.261Z,-6.27
2023-01-13T03:44:17.993Z,-6.30
2023-01-13T03:49:21.361Z,-6.23
2023-01-13T03:54:23.334Z,-6.27
2023-01-13T03:59:29.301Z,-6.28
2023-01-13T04:04:32.401Z,-6.16
2023-01-13T04:09:40.122Z,-6.19
2023-01-13T04:14:42.112Z,-6.17
2023-01-13T04:19:43.955Z,-6.18
2023-01-13T04:24:45.778Z,-6.20
2023-01-13T04:29:47.799Z,-6.24
2023-01-13T04:34:49.701Z,-6.32
2023-01-13T04:39:51.565Z,-6.29
2023-01-13T04:44:53.375Z,-6.21
2023-01-13T04:49:55.287Z,-6.28
2023-01-13T04:54:57.190Z,-6.30
2023-01-13T04:59:59.049Z,-6.30
2023-01-13T05:05:00.970Z,-6.33
2023-01-13T05:10:03.051Z,-6.28
2023-01-13T05:15:06.388Z,-6.28
2023-01-13T05:20:08.966Z,-6.29
2023-01-13T05:25:12.140Z,-6.30
2023-01-13T05:30:15.209Z,-6.27
2023-01-13T05:35:17.150Z,-6.26
2023-01-13T05:40:19.068Z,-6.18
2023-01-13T05:45:20.927Z,-6.29
2023-01-13T05:50:22.816Z,-6.35
2023-01-13T05:55:24.643Z,-6.34
2023-01-13T06:00:26.587Z,-6.39
2023-01-13T06:05:28.821Z,-6.32
2023-01-13T06:10:30.689Z,-6.28
2023-01-13T06:15:32.661Z,-6.28
2023-01-13T06:20:34.539Z,-6.13
2023-01-13T06:26:04.386Z,-6.13
2023-01-13T06:31:07.250Z,-6.09
2023-01-13T06:36:25.715Z,-5.94
2023-01-13T06:41:27.555Z,-6.09
2023-01-13T06:46:29.319Z,-6.17
2023-01-13T06:51:31.208Z,-6.06
2023-01-13T06:56:33.055Z,-5.93
2023-01-13T07:01:34.964Z,-5.93
2023-01-13T07:06:36.893Z,-6.07
2023-01-13T07:11:38.741Z,-6.07
2023-01-13T07:16:40.622Z,-5.93
2023-01-13T07:21:42.539Z,-5.92
2023-01-13T07:26:44.342Z,-5.84
2023-01-13T07:31:48.232Z,-5.90
2023-01-13T07:36:51.613Z,-5.65
2023-01-13T07:41:53.419Z,-5.84
2023-01-13T07:46:55.327Z,-6.08
2023-01-13T07:51:57.165Z,-5.81
2023-01-13T07:56:58.935Z,-5.74
2023-01-13T08:02:00.973Z,-5.81
2023-01-13T08:07:03.936Z,-5.76
2023-01-13T08:12:05.939Z,-5.80
2023-01-13T08:17:08.703Z,-5.78
2023-01-13T08:22:10.351Z,-5.96
2023-01-13T08:27:12.114Z,-5.91
2023-01-13T08:32:14.194Z,-5.89
2023-01-13T08:37:16.124Z,-6.02
2023-01-13T08:42:18.011Z,-5.86
2023-01-13T08:47:19.992Z,-5.82
2023-01-13T08:52:22.162Z,-5.79
2023-01-13T08:57:24.112Z,-5.68
2023-01-13T09:02:26.317Z,-5.47
2023-01-13T09:07:28.193Z,-5.41
2023-01-13T09:12:31.824Z,-5.47
2023-01-13T09:17:33.755Z,-5.65
2023-01-13T09:22:35.562Z,-5.58
2023-01-13T09:27:37.402Z,-5.51
2023-01-13T09:32:39.389Z,-5.35
2023-01-13T09:37:41.279Z,-5.33
2023-01-13T09:42:54.071Z,-5.37
2023-01-13T09:48:16.769Z,-5.44
2023-01-13T09:53:28.505Z,-5.59
2023-01-13T09:58:30.479Z,-5.43
2023-01-13T10:03:33.298Z,-5.27
2023-01-13T10:08:37.899Z,-5.25
2023-01-13T10:13:39.720Z,-5.58
2023-01-13T10:18:57.622Z,-5.79
2023-01-13T10:24:18.065Z,-5.76
2023-01-13T10:29:24.530Z,-5.81
2023-01-13T10:34:27.346Z,-5.68
2023-01-13T10:39:34.865Z,-5.55
2023-01-13T10:44:52.793Z,-5.31
2023-01-13T10:50:03.868Z,-5.24
2023-01-13T10:55:23.760Z,-5.24
2023-01-13T11:00:30.337Z,-5.32
2023-01-13T11:05:32.124Z,-5.32
2023-01-13T11:10:33.949Z,-5.34
2023-01-13T11:15:41.742Z,-5.24
2023-01-13T11:20:44.353Z,-5.18
2023-01-13T11:25:48.943Z,-5.29
2023-01-13T11:31:14.828Z,-5.18
2023-01-13T11:36:31.778Z,-5.14
2023-01-13T11:41:48.744Z,-5.24
2023-01-13T11:46:50.709Z,-5.15
2023-01-13T11:52:00.880Z,-5.09
2023-01-13T11:57:17.794Z,-5.08
2023-01-13T12:02:19.559Z,-5.10
2023-01-13T12:07:28.553Z,-5.32
2023-01-13T12:12:48.815Z,-5.21
2023-01-13T12:17:56.677Z,-5.19
2023-01-13T12:23:01.365Z,-5.06
2023-01-13T12:28:26.478Z,-5.32
2023-01-13T12:33:37.508Z,-5.37
2023-01-13T12:39:02.699Z,-5.26
2023-01-13T12:44:04.732Z,-5.06
2023-01-13T12:49:07.006Z,-5.23
2023-01-13T12:54:37.855Z,-5.34
2023-01-13T12:59:39.723Z,-5.41
2023-01-13T13:04:42.631Z,-5.41
2023-01-13T13:09:47.987Z,-5.43
2023-01-13T13:14:49.842Z,-5.43
2023-01-13T13:19:51.954Z,-5.43
2023-01-13T13:24:56.748Z,-5.36
2023-01-13T13:30:02.142Z,-5.54
2023-01-13T13:35:33.735Z,-5.44
2023-01-13T13:40:41.497Z,-5.57
2023-01-13T13:45:51.133Z,-5.41
2023-01-13T13:50:57.214Z,-5.39
2023-01-13T13:56:00.391Z,-5.53
2023-01-13T14:01:06.188Z,-5.47
2023-01-13T14:06:16.963Z,-5.50
2023-01-13T14:11:29.577Z,-5.46
2023-01-13T14:16:33.432Z,-5.50
2023-01-13T14:21:36.263Z,-5.66
2023-01-13T14:26:38.189Z,-5.55
2023-01-13T14:31:42.543Z,-5.56
2023-01-13T14:36:46.523Z,-5.61
2023-01-13T14:41:49.492Z,-5.54
2023-01-13T14:46:52.072Z,-5.49
2023-01-13T14:51:54.014Z,-5.48
2023-01-13T14:57:29.739Z,-5.47
2023-01-13T15:02:32.685Z,-5.44
2023-01-13T15:07:35.469Z,-5.33
2023-01-13T15:12:38.252Z,-5.39
2023-01-13T15:17:40.471Z,-5.28
2023-01-13T15:22:42.539Z,-5.27
2023-01-13T15:27:44.798Z,-5.32
2023-01-13T15:32:46.648Z,-5.41
2023-01-13T15:37:48.944Z,-5.35
2023-01-13T15:42:50.812Z,-5.37
2023-01-13T15:47:52.612Z,-5.31
2023-01-13T15:52:54.435Z,-5.34
2023-01-13T15:57:56.270Z,-5.41
2023-01-13T16:02:58.320Z,-5.42
2023-01-13T16:08:00.254Z,-5.41
2023-01-13T16:13:02.172Z,-5.39
2023-01-13T16:18:04.538Z,-5.34
2023-01-13T16:23:06.497Z,-5.24
2023-01-13T16:28:13.044Z,-5.25
2023-01-13T16:33:14.964Z,-5.26
2023-01-13T16:38:17.196Z,-5.24
2023-01-13T16:43:19.215Z,-5.27
2023-01-13T16:48:21.168Z,-5.23
2023-01-13T16:53:22.984Z,-5.16
2023-01-13T16:58:24.930Z,-5.12
2023-01-13T17:03:26.921Z,-5.18
2023-01-13T17:08:29.188Z,-5.24
2023-01-13T17:13:31.020Z,-5.20
2023-01-13T17:18:32.922Z,-5.20
2023-01-13T17:23:34.754Z,-5.15
2023-01-13T17:28:36.674Z,-5.08
2023-01-13T17:33:38.602Z,-5.13
2023-01-13T17:38:40.503Z,-5.02
2023-01-13T17:43:42.432Z,-5.07
2023-01-13T17:48:45.449Z,-5.07
2023-01-13T17:53:47.376Z,-5.04
2023-01-13T17:58:49.194Z,-5.13
2023-01-13T18:03:51.343Z,-5.07
2023-01-13T18:08:54.269Z,-4.96
2023-01-13T18:13:56.596Z,-5.00
2023-01-13T18:18:58.863Z,-4.91
2023-01-13T18:24:01.641Z,-4.91
2023-01-13T18:29:03.571Z,-4.91
2023-01-13T18:34:06.060Z,-4.91
2023-01-13T18:39:07.953Z,-4.90
2023-01-13T18:44:09.929Z,-4.92
2023-01-13T18:49:11.778Z,-4.93
2023-01-13T18:54:13.730Z,-4.91
2023-01-13T18:59:16.245Z,-4.90
2023-01-13T19:04:17.841Z,-4.93
2023-01-13T19:09:21.566Z,-4.83
2023-01-13T19:14:23.546Z,-4.78
2023-01-13T19:19:25.403Z,-4.83
2023-01-13T19:24:28.500Z,-4.76
2023-01-13T19:29:31.484Z,-4.72
2023-01-13T19:34:34.451Z,-4.69
2023-01-13T19:39:36.452Z,-4.55
2023-01-13T19:44:38.275Z,-4.55
2023-01-13T19:49:40.172Z,-4.40
2023-01-13T19:54:44.851Z,-4.47
2023-01-13T19:59:46.638Z,-4.51
2023-01-13T20:04:48.637Z,-4.46
2023-01-13T20:09:50.949Z,-4.44
2023-01-13T20:14:53.115Z,-4.41
2023-01-13T20:19:55.119Z,-4.38
2023-01-13T20:24:56.953Z,-4.39
2023-01-13T20:29:58.820Z,-4.54
2023-01-13T20:35:00.676Z,-4.48
2023-01-13T20:40:02.518Z,-4.40
2023-01-13T20:45:05.151Z,-4.46
2023-01-13T20:50:07.759Z,-4.49
2023-01-13T20:55:09.823Z,-4.49
2023-01-13T21:00:12.033Z,-4.47
2023-01-13T21:05:14.041Z,-4.38
2023-01-13T21:10:16.114Z,-4.34
2023-01-13T21:15:18.041Z,-4.38
2023-01-13T21:20:20.059Z,-4.30
2023-01-13T21:25:21.900Z,-4.29
2023-01-13T21:30:23.961Z,-4.35
2023-01-13T21:35:26.277Z,-4.31
2023-01-13T21:40:28.185Z,-4.31
2023-01-13T21:45:30.133Z,-4.27
2023-01-13T21:50:31.969Z,-4.31
2023-01-13T21:55:34.485Z,-4.40
2023-01-13T22:00:36.106Z,-4.26
2023-01-13T22:05:37.961Z,-4.30
2023-01-13T22:10:39.854Z,-4.19
2023-01-13T22:15:41.903Z,-4.13
2023-01-13T22:20:43.860Z,-4.14
2023-01-13T22:25:45.813Z,-4.17
2023-01-13T22:30:47.735Z,-4.19
2023-01-13T22:35:55.166Z,-4.06
2023-01-13T22:41:00.567Z,-4.09
2023-01-13T22:46:06.657Z,-4.11
2023-01-13T22:51:15.839Z,-3.98
2023-01-13T22:56:20.284Z,-4.09
2023-01-13T23:01:22.379Z,-4.01
2023-01-13T23:06:25.156Z,-3.91
2023-01-13T23:11:27.427Z,-3.98
2023-01-13T23:16:29.701Z,-3.93
2023-01-13T23:21:33.793Z,-3.92
2023-01-13T23:26:35.841Z,-3.97
2023-01-13T23:31:38.183Z,-3.88
2023-01-13T23:36:40.123Z,-3.88
2023-01-13T23:41:41.969Z,-3.73
2023-01-13T23:46:43.839Z,-3.77
2023-01-13T23:51:45.674Z,-3.74
2023-01-13T23:56:49.368Z,-3.73
